الصفحة الرئيسية
METAR-TAF:

METAR-TAF

مطار :

قاعدة البساتين الجوية

مكناس, المغرب

دائرة عرض: 33-53N, خط طول: 005-32W, ارتفاع: 576 متر

مراقبة الطقس الحالي

تاريخ ووقت الإصدار 58 دقيقة قبل الساعة 13:00UTC
ريح 12 عقدة من الغرب/الشمال الغربي, الاتجاه يتراوح بين الغرب و الشمال/الشمال الغربي
درجة الحرارة 15°درجة مئوية
الرطوبة 72%
ضغط 1014 hPa
الرؤية 10 كم أو أكثر
غيوم متفرقة على ارتفاع 1600 قدم
غيوم متفرقة على ارتفاع 2000 قدم

METAR: GMFM 061300Z 30012KT 270V330 9999 SCT016 SCT020 15/10 Q1014 NOSIG

زمن: 14:58 (13:58 UTC)

توقعات

تاريخ ووقت الإصدار 2ساعات و 58 دقيقة قبل الساعة 11:00UTC
التوقعات صالحة من06 الساعة 12 UTC إلى 07 الساعة 18 UTC
ريح 8 عقدة من الشمال الشرقي
الرؤية: 8000 متر
غيوم متفرقة على ارتفاع 1300 قدم
غيوم مفككة على ارتفاع 2000 قدم
مطر خفيف
أصبح
من 06 الساعة 20 UTC إلى 07 الساعة 00 UTC
الرؤية 10 كم أو أكثر
غيوم متفرقة على ارتفاع 2000 قدم
غيوم متفرقة على ارتفاع 10000 قدم

TAF: GMFM 061100Z 0612/0718 04008KT 8000 -RA SCT013 BKN020 BECMG 0620/0700 9999 SCT020 SCT100

أرصاد الطقس والتوقعات من أكثر من 4000 مطار (تقارير الطقس للمطار METAR والتنبؤ بالطقس بالمطارTAF).

المحطات المتاحة هي النقط الصفراء والحمراء على الخريطة.

حرك المؤشر فوق النقطة لمعرفة اسم المحطة.

ثم انقر لمعرفة أرصاد وتوقعات الطقس.

لتغيير الخارطة: اضغط على الأزرار الخضراء مع رمز الصليب الأسود للتكبير. على الزر الأخضر مع شرطة للتصغير، أو على الأسهم الخضراء للخرائط المجاورة.


METAR-TAF: